»·PEaware :: UAL1217 KPDX-KSFO

UAL1217 :: KPDX-KSFO

FLIGHT INFORMATION

Flight Status: Arrived
Operator:
United Airlines
More flights by this operator :: More flights under this callsign
Pilot: Anonymous 14085 (14085)
Aircraft: AIRBUS A320
(A320)
More flights by this aircraft type
Origin: KPDX Portland Intl
United States
Destination: KSFO San Francisco Intl
United States
More flights between these airports :: More routes between these airports
Route: MINNE5 FAMUK Q3 FOWND MLBEC BDEGA2
File this flight plan on PilotEdge
Remarks: PBN / A1B1C1D1O1S1 DOF / 180106 REG / N320SB EET / KZOA0042 OPR / UAL PER / C RMK / TCAS SIMBRIEF
Altitude:
(Current/Filed)
35,000ft
Speed:
(Current/Filed)
459kts
Departed: 05-Jan-18 06:52 PM
Arrived: 05-Jan-18 08:24 PM
Distance/Time
Traveled:
478nm/1:32
Distance/Time
To Go:
Arrived

Flight Plot

Page will automatically refresh every two minutes.


Map Options




Map Legend


Flown Route
Filed Route
Departure Airport
Arrival Airport
Navaid (VOR, NDB)
Fix

Horizontal Profiles

Position Reports

Time Latitude Longitude Heading Altitude Ground
Speed
05-Jan-18 18:23 45.590048 -122.591054 208 38ft 0kts
05-Jan-18 18:24 45.590048 -122.591054 208 38ft 0kts
05-Jan-18 18:25 45.590048 -122.591054 208 38ft 0kts
05-Jan-18 18:26 45.590048 -122.591054 208 38ft 0kts
05-Jan-18 18:27 45.590048 -122.591054 208 38ft 0kts
05-Jan-18 18:28 45.590048 -122.591054 208 38ft 0kts
05-Jan-18 18:29 45.590048 -122.591054 208 38ft 0kts
05-Jan-18 18:30 45.590048 -122.591054 208 38ft 0kts
05-Jan-18 18:31 45.590048 -122.591054 208 38ft 0kts
05-Jan-18 18:32 45.590048 -122.591054 208 38ft 0kts
05-Jan-18 18:33 45.590048 -122.591054 208 38ft 0kts
05-Jan-18 18:34 45.590048 -122.591054 208 38ft 0kts
05-Jan-18 18:35 45.590048 -122.591054 208 38ft 0kts
05-Jan-18 18:36 45.590048 -122.591054 208 38ft 0kts
05-Jan-18 18:37 45.590048 -122.591054 208 38ft 0kts
05-Jan-18 18:38 45.590048 -122.591054 208 38ft 0kts
05-Jan-18 18:39 45.590048 -122.591054 208 38ft 0kts
05-Jan-18 18:40 45.590048 -122.591054 208 38ft 0kts
05-Jan-18 18:41 45.590048 -122.591054 208 38ft 0kts
05-Jan-18 18:42 45.590048 -122.591054 208 38ft 0kts
05-Jan-18 18:43 45.590048 -122.591054 208 38ft 0kts
05-Jan-18 18:44 45.590048 -122.591054 208 38ft 0kts
05-Jan-18 18:45 45.590048 -122.591054 208 38ft 0kts
05-Jan-18 18:46 45.590048 -122.591054 208 38ft 0kts
05-Jan-18 18:47 45.590048 -122.591054 208 38ft 0kts
05-Jan-18 18:48 45.590250 -122.590895 208 38ft 2kts
05-Jan-18 18:49 45.590624 -122.590314 281 38ft 2kts
05-Jan-18 18:50 45.590569 -122.590131 298 38ft 0kts
05-Jan-18 18:51 45.590569 -122.590131 298 38ft 0kts
05-Jan-18 18:52 45.590570 -122.590134 298 38ft 0kts
05-Jan-18 18:53 45.591875 -122.593459 298 38ft 16kts
05-Jan-18 18:54 45.594314 -122.597670 43 38ft 1kts
05-Jan-18 18:55 45.594323 -122.597658 44 38ft 0kts
05-Jan-18 18:56 45.594323 -122.597658 44 38ft 0kts
05-Jan-18 18:57 45.594619 -122.595130 117 38ft 16kts
05-Jan-18 18:58 45.583738 -122.559705 101 1499ft 140kts
05-Jan-18 18:59 45.574063 -122.506838 102 4285ft 154kts
05-Jan-18 19:00 45.560912 -122.435133 102 6339ft 226kts
05-Jan-18 19:01 45.540368 -122.343200 128 9312ft 253kts
05-Jan-18 19:02 45.469619 -122.317372 182 11639ft 306kts
05-Jan-18 19:03 45.403975 -122.403535 242 12993ft 370kts
05-Jan-18 19:04 45.361283 -122.536920 244 15065ft 373kts
05-Jan-18 19:05 45.318319 -122.670739 243 16706ft 382kts
05-Jan-18 19:06 45.274817 -122.805828 243 18223ft 389kts
05-Jan-18 19:07 45.217861 -122.936106 222 19623ft 396kts
05-Jan-18 19:08 45.115262 -122.994322 193 20893ft 415kts
05-Jan-18 19:09 45.000591 -123.020542 194 21994ft 422kts
05-Jan-18 19:10 44.884890 -123.047328 194 23089ft 427kts
05-Jan-18 19:11 44.786758 -123.070006 194 23942ft 432kts
05-Jan-18 19:12 44.648286 -123.101868 194 25030ft 437kts
05-Jan-18 19:13 44.528371 -123.129308 194 25949ft 438kts
05-Jan-18 19:14 44.429739 -123.133189 184 26789ft 444kts
05-Jan-18 19:15 44.286815 -123.128163 185 28007ft 440kts
05-Jan-18 19:16 44.185369 -123.124568 185 28850ft 438kts
05-Jan-18 19:17 44.064186 -123.120273 185 29848ft 435kts
05-Jan-18 19:18 43.923973 -123.115336 185 30885ft 433kts
05-Jan-18 19:19 43.825040 -123.111849 185 31681ft 430kts
05-Jan-18 19:20 43.706002 -123.107692 185 32518ft 428kts
05-Jan-18 19:21 43.587427 -123.103538 185 33275ft 427kts
05-Jan-18 19:22 43.507185 -123.100752 185 33738ft 426kts
05-Jan-18 19:23 43.392090 -123.096772 185 34311ft 426kts
05-Jan-18 19:24 43.273540 -123.092690 185 34773ft 428kts
05-Jan-18 19:25 43.154750 -123.088603 185 35211ft 429kts
05-Jan-18 19:26 43.036292 -123.084529 185 35306ft 427kts
05-Jan-18 19:27 42.917791 -123.080493 185 35306ft 427kts
05-Jan-18 19:28 42.800554 -123.076508 185 35308ft 427kts
05-Jan-18 19:29 42.682045 -123.072490 185 35282ft 427kts
05-Jan-18 19:30 42.563821 -123.068500 185 35280ft 426kts
05-Jan-18 19:31 42.447244 -123.064607 185 35275ft 426kts
05-Jan-18 19:32 42.329170 -123.060790 185 35272ft 425kts
05-Jan-18 19:33 42.211533 -123.056993 185 35274ft 425kts
05-Jan-18 19:34 42.093846 -123.053208 185 35275ft 424kts
05-Jan-18 19:35 41.976055 -123.049433 185 35276ft 424kts
05-Jan-18 19:36 41.859629 -123.045718 185 35277ft 424kts
05-Jan-18 19:37 41.742710 -123.041999 185 35256ft 424kts
05-Jan-18 19:38 41.625304 -123.038281 186 35259ft 423kts
05-Jan-18 19:39 41.507788 -123.034573 186 35253ft 423kts
05-Jan-18 19:40 41.394410 -123.031006 186 35249ft 422kts
05-Jan-18 19:41 41.277515 -123.027393 186 35275ft 422kts
05-Jan-18 19:42 41.160625 -123.023858 186 35274ft 421kts
05-Jan-18 19:43 41.046167 -123.020405 186 35275ft 421kts
05-Jan-18 19:44 40.929804 -123.016906 186 35276ft 420kts
05-Jan-18 19:45 40.816887 -123.013527 186 35282ft 421kts
05-Jan-18 19:46 40.700017 -123.010036 186 35287ft 421kts
05-Jan-18 19:47 40.583374 -123.006563 186 35282ft 420kts
05-Jan-18 19:48 40.466557 -123.003100 186 35276ft 420kts
05-Jan-18 19:49 40.353473 -122.999759 186 35274ft 420kts
05-Jan-18 19:50 40.236834 -122.996324 186 35275ft 420kts
05-Jan-18 19:51 40.121113 -122.992923 186 35290ft 419kts
05-Jan-18 19:52 40.004857 -122.989522 187 35279ft 418kts
05-Jan-18 19:53 39.892034 -122.986235 187 35273ft 417kts
05-Jan-18 19:54 39.784335 -122.983103 187 35299ft 416kts
05-Jan-18 19:55 39.675840 -122.979959 187 35285ft 414kts
05-Jan-18 19:56 39.561498 -122.976659 187 35297ft 413kts
05-Jan-18 19:57 39.450782 -122.973476 187 35297ft 413kts
05-Jan-18 19:58 39.336385 -122.970197 187 35295ft 413kts
05-Jan-18 19:59 39.221915 -122.965342 187 35299ft 413kts
05-Jan-18 20:00 39.107799 -122.961631 187 35323ft 411kts
05-Jan-18 20:01 38.993632 -122.960882 188 35294ft 411kts
05-Jan-18 20:02 38.880596 -122.957968 183 33541ft 414kts
05-Jan-18 20:03 38.769757 -122.927854 175 30936ft 424kts
05-Jan-18 20:04 38.657862 -122.894720 174 28562ft 417kts
05-Jan-18 20:05 38.549788 -122.862767 175 27050ft 391kts
05-Jan-18 20:06 38.451157 -122.833793 175 25029ft 382kts
05-Jan-18 20:07 38.349603 -122.803996 174 22999ft 371kts
05-Jan-18 20:08 38.251679 -122.775324 174 21142ft 356kts
05-Jan-18 20:09 38.157831 -122.747981 174 19338ft 342kts
05-Jan-18 20:10 38.066960 -122.721602 174 17563ft 329kts
05-Jan-18 20:11 37.980358 -122.696527 173 15862ft 316kts
05-Jan-18 20:12 37.897527 -122.669433 156 14190ft 315kts
05-Jan-18 20:13 37.831218 -122.600975 145 12540ft 317kts
05-Jan-18 20:14 37.771359 -122.537426 145 11301ft 301kts
05-Jan-18 20:15 37.710246 -122.472641 145 10539ft 288kts
05-Jan-18 20:16 37.649400 -122.407977 144 9131ft 280kts
05-Jan-18 20:17 37.589444 -122.355316 158 8274ft 254kts
05-Jan-18 20:18 37.529525 -122.319225 154 7039ft 256kts
05-Jan-18 20:19 37.468698 -122.281857 154 6262ft 239kts
05-Jan-18 20:20 37.406671 -122.243640 154 4797ft 251kts
05-Jan-18 20:21 37.370804 -122.187603 73 4004ft 234kts
05-Jan-18 20:22 37.407865 -122.134010 43 4017ft 220kts
05-Jan-18 20:23 37.449494 -122.113613 345 4018ft 203kts
05-Jan-18 20:24 37.498615 -122.131413 344 4013ft 187kts
05-Jan-18 20:25 37.535577 -122.171297 299 3257ft 198kts
05-Jan-18 20:26 37.559462 -122.227958 297 2301ft 166kts
05-Jan-18 20:27 37.574006 -122.273880 293 1577ft 140kts
05-Jan-18 20:28 37.592771 -122.314920 302 910ft 141kts
05-Jan-18 20:29 37.610709 -122.356015 299 120ft 156kts
05-Jan-18 20:30 37.618964 -122.377249 270 21ft 26kts
05-Jan-18 20:31 37.618949 -122.378412 269 21ft 4kts
05-Jan-18 20:32 37.619376 -122.381303 297 21ft 16kts
05-Jan-18 20:33 37.620845 -122.384818 297 21ft 9kts
05-Jan-18 20:34 37.621613 -122.386655 298 21ft 5kts
05-Jan-18 20:35 37.621905 -122.387825 236 21ft 2kts
05-Jan-18 20:36 37.621502 -122.388264 301 21ft 3kts
05-Jan-18 20:37 37.621027 -122.387656 191 21ft 0kts
05-Jan-18 20:38 37.621022 -122.387660 201 21ft 0kts
05-Jan-18 20:39 37.621022 -122.387660 201 21ft 0kts
05-Jan-18 20:40 37.619755 -122.384003 213 20ft 0kts
05-Jan-18 20:41 37.619755 -122.384003 213 20ft 0kts

Navigation Log

Ident Type
Flight plan parsing failed, navigation log unavailable